sensor_id;sensor_type;location;lat;lon;timestamp;temperature;humidity
62339;DHT22;48368;53.406;6.214;2023-07-13T00:14:14;17.00;99.90
62339;DHT22;48368;53.406;6.214;2023-07-13T00:37:17;16.90;99.90
62339;DHT22;48368;53.406;6.214;2023-07-13T01:33:47;16.50;99.90
62339;DHT22;48368;53.406;6.214;2023-07-13T02:37:11;16.20;99.90
62339;DHT22;48368;53.406;6.214;2023-07-13T03:22:00;16.10;99.90
62339;DHT22;48368;53.406;6.214;2023-07-13T03:33:06;16.10;99.90
62339;DHT22;48368;53.406;6.214;2023-07-13T03:51:49;16.00;99.90
62339;DHT22;48368;53.406;6.214;2023-07-13T04:33:17;16.30;99.90
62339;DHT22;48368;53.406;6.214;2023-07-13T05:06:05;16.50;99.90
62339;DHT22;48368;53.406;6.214;2023-07-13T05:08:58;16.70;99.90
62339;DHT22;48368;53.406;6.214;2023-07-13T05:11:38;16.80;99.90
62339;DHT22;48368;53.406;6.214;2023-07-13T05:20:22;17.10;99.90
62339;DHT22;48368;53.406;6.214;2023-07-13T05:27:18;17.30;99.90
62339;DHT22;48368;53.406;6.214;2023-07-13T05:30:19;17.40;99.90
62339;DHT22;48368;53.406;6.214;2023-07-13T05:33:14;17.60;99.90
62339;DHT22;48368;53.406;6.214;2023-07-13T05:39:35;17.90;99.90
62339;DHT22;48368;53.406;6.214;2023-07-13T05:42:20;18.10;99.90
62339;DHT22;48368;53.406;6.214;2023-07-13T05:48:10;18.40;99.90
62339;DHT22;48368;53.406;6.214;2023-07-13T05:51:07;18.50;99.90
62339;DHT22;48368;53.406;6.214;2023-07-13T05:54:23;18.60;99.90
62339;DHT22;48368;53.406;6.214;2023-07-13T06:01:19;19.10;99.90
62339;DHT22;48368;53.406;6.214;2023-07-13T06:03:56;19.20;99.90
62339;DHT22;48368;53.406;6.214;2023-07-13T06:10:38;19.10;99.90
62339;DHT22;48368;53.406;6.214;2023-07-13T06:24:29;19.90;99.90
62339;DHT22;48368;53.406;6.214;2023-07-13T06:27:14;19.90;99.90
62339;DHT22;48368;53.406;6.214;2023-07-13T06:34:34;20.20;99.90
62339;DHT22;48368;53.406;6.214;2023-07-13T06:41:37;20.40;99.90
62339;DHT22;48368;53.406;6.214;2023-07-13T06:44:28;20.50;99.90
62339;DHT22;48368;53.406;6.214;2023-07-13T06:47:19;20.60;99.90
62339;DHT22;48368;53.406;6.214;2023-07-13T06:50:17;20.60;99.90
62339;DHT22;48368;53.406;6.214;2023-07-13T06:54:02;20.50;99.90
62339;DHT22;48368;53.406;6.214;2023-07-13T07:17:57;20.80;99.90
62339;DHT22;48368;53.406;6.214;2023-07-13T07:27:36;21.40;99.90
62339;DHT22;48368;53.406;6.214;2023-07-13T07:30:23;21.40;99.90
62339;DHT22;48368;53.406;6.214;2023-07-13T07:42:25;21.50;99.90
62339;DHT22;48368;53.406;6.214;2023-07-13T07:45:00;21.30;99.90
62339;DHT22;48368;53.406;6.214;2023-07-13T07:47:47;21.30;99.90
62339;DHT22;48368;53.406;6.214;2023-07-13T07:50:15;21.50;99.90
62339;DHT22;48368;53.406;6.214;2023-07-13T07:52:45;21.70;99.90
62339;DHT22;48368;53.406;6.214;2023-07-13T07:55:20;21.80;99.90
62339;DHT22;48368;53.406;6.214;2023-07-13T07:58:19;21.60;99.90
62339;DHT22;48368;53.406;6.214;2023-07-13T08:01:06;21.40;99.90
62339;DHT22;48368;53.406;6.214;2023-07-13T08:03:58;21.30;99.90
62339;DHT22;48368;53.406;6.214;2023-07-13T08:06:37;21.00;99.90
62339;DHT22;48368;53.406;6.214;2023-07-13T08:09:28;20.80;99.90
62339;DHT22;48368;53.406;6.214;2023-07-13T08:12:07;20.60;99.90
62339;DHT22;48368;53.406;6.214;2023-07-13T08:14:56;20.60;99.90
62339;DHT22;48368;53.406;6.214;2023-07-13T08:17:44;20.90;99.90
62339;DHT22;48368;53.406;6.214;2023-07-13T08:20:30;21.10;99.90
62339;DHT22;48368;53.406;6.214;2023-07-13T08:23:04;21.50;99.90
62339;DHT22;48368;53.406;6.214;2023-07-13T08:25:35;21.70;99.90
62339;DHT22;48368;53.406;6.214;2023-07-13T08:31:45;22.10;99.90
62339;DHT22;48368;53.406;6.214;2023-07-13T08:34:55;22.20;99.90
62339;DHT22;48368;53.406;6.214;2023-07-13T08:37:58;21.80;99.90
62339;DHT22;48368;53.406;6.214;2023-07-13T08:47:47;22.50;99.90
62339;DHT22;48368;53.406;6.214;2023-07-13T08:50:49;22.70;99.90
62339;DHT22;48368;53.406;6.214;2023-07-13T08:56:46;22.30;99.90
62339;DHT22;48368;53.406;6.214;2023-07-13T08:59:19;21.70;99.90
62339;DHT22;48368;53.406;6.214;2023-07-13T09:05:03;21.00;99.90
62339;DHT22;48368;53.406;6.214;2023-07-13T09:11:21;21.00;99.90
62339;DHT22;48368;53.406;6.214;2023-07-13T09:14:26;21.00;99.90
62339;DHT22;48368;53.406;6.214;2023-07-13T09:21:48;20.80;99.90
62339;DHT22;48368;53.406;6.214;2023-07-13T09:28:24;21.70;99.90
62339;DHT22;48368;53.406;6.214;2023-07-13T09:35:22;21.60;99.90
62339;DHT22;48368;53.406;6.214;2023-07-13T09:41:26;21.50;99.90
62339;DHT22;48368;53.406;6.214;2023-07-13T09:44:30;21.90;99.90
62339;DHT22;48368;53.406;6.214;2023-07-13T09:46:59;22.10;99.90
62339;DHT22;48368;53.406;6.214;2023-07-13T09:49:35;22.00;99.90
62339;DHT22;48368;53.406;6.214;2023-07-13T09:55:56;21.90;99.90
62339;DHT22;48368;53.406;6.214;2023-07-13T10:02:07;22.20;99.90
62339;DHT22;48368;53.406;6.214;2023-07-13T10:04:46;22.40;99.90
62339;DHT22;48368;53.406;6.214;2023-07-13T10:07:15;22.40;99.90
62339;DHT22;48368;53.406;6.214;2023-07-13T10:09:46;22.40;99.90
62339;DHT22;48368;53.406;6.214;2023-07-13T10:15:56;22.40;99.90
62339;DHT22;48368;53.406;6.214;2023-07-13T10:18:53;22.50;99.90
62339;DHT22;48368;53.406;6.214;2023-07-13T10:23:01;22.70;99.90
62339;DHT22;48368;53.406;6.214;2023-07-13T10:25:39;22.90;99.90
62339;DHT22;48368;53.406;6.214;2023-07-13T10:28:41;23.10;99.90
62339;DHT22;48368;53.406;6.214;2023-07-13T10:31:34;23.20;99.90
62339;DHT22;48368;53.406;6.214;2023-07-13T10:34:07;23.20;99.90
62339;DHT22;48368;53.406;6.214;2023-07-13T10:37:05;23.10;99.90
62339;DHT22;48368;53.406;6.214;2023-07-13T10:39:48;23.10;99.90
62339;DHT22;48368;53.406;6.214;2023-07-13T10:42:42;23.10;99.90
62339;DHT22;48368;53.406;6.214;2023-07-13T10:46:05;22.80;99.90
62339;DHT22;48368;53.406;6.214;2023-07-13T10:48:41;22.90;99.90
62339;DHT22;48368;53.406;6.214;2023-07-13T10:51:13;23.00;99.90
62339;DHT22;48368;53.406;6.214;2023-07-13T10:53:40;23.00;99.90
62339;DHT22;48368;53.406;6.214;2023-07-13T10:59:11;22.70;99.90
62339;DHT22;48368;53.406;6.214;2023-07-13T11:02:22;22.60;99.90
62339;DHT22;48368;53.406;6.214;2023-07-13T11:04:53;22.50;99.90
62339;DHT22;48368;53.406;6.214;2023-07-13T11:10:49;22.70;99.90
62339;DHT22;48368;53.406;6.214;2023-07-13T11:19:26;22.80;99.90
62339;DHT22;48368;53.406;6.214;2023-07-13T11:22:22;22.90;99.90
62339;DHT22;48368;53.406;6.214;2023-07-13T11:28:23;22.50;99.90
62339;DHT22;48368;53.406;6.214;2023-07-13T11:31:14;22.60;99.90
62339;DHT22;48368;53.406;6.214;2023-07-13T11:33:51;22.50;99.90
62339;DHT22;48368;53.406;6.214;2023-07-13T11:36:24;22.40;99.90
62339;DHT22;48368;53.406;6.214;2023-07-13T11:39:18;22.40;99.90
62339;DHT22;48368;53.406;6.214;2023-07-13T11:42:01;22.60;99.90
62339;DHT22;48368;53.406;6.214;2023-07-13T11:44:30;22.80;99.90
62339;DHT22;48368;53.406;6.214;2023-07-13T11:46:58;22.80;99.90
62339;DHT22;48368;53.406;6.214;2023-07-13T11:49:30;22.90;99.90
62339;DHT22;48368;53.406;6.214;2023-07-13T11:52:09;22.90;99.90
62339;DHT22;48368;53.406;6.214;2023-07-13T11:54:56;23.10;99.90
62339;DHT22;48368;53.406;6.214;2023-07-13T11:57:28;23.00;99.90
62339;DHT22;48368;53.406;6.214;2023-07-13T11:59:56;23.20;99.90
62339;DHT22;48368;53.406;6.214;2023-07-13T12:02:35;23.10;99.90
62339;DHT22;48368;53.406;6.214;2023-07-13T12:05:02;22.90;99.90
62339;DHT22;48368;53.406;6.214;2023-07-13T12:07:31;22.80;99.90
62339;DHT22;48368;53.406;6.214;2023-07-13T12:10:17;22.80;99.90
62339;DHT22;48368;53.406;6.214;2023-07-13T12:12:57;22.80;99.90
62339;DHT22;48368;53.406;6.214;2023-07-13T12:15:45;22.80;99.90
62339;DHT22;48368;53.406;6.214;2023-07-13T12:18:18;22.50;99.90
62339;DHT22;48368;53.406;6.214;2023-07-13T12:20:45;22.30;99.90
62339;DHT22;48368;53.406;6.214;2023-07-13T12:23:24;22.30;99.90
62339;DHT22;48368;53.406;6.214;2023-07-13T12:25:52;22.30;99.90
62339;DHT22;48368;53.406;6.214;2023-07-13T12:34:23;22.40;99.90
62339;DHT22;48368;53.406;6.214;2023-07-13T12:36:59;22.00;99.90
62339;DHT22;48368;53.406;6.214;2023-07-13T12:39:45;21.70;99.90
62339;DHT22;48368;53.406;6.214;2023-07-13T12:42:27;21.80;99.90
62339;DHT22;48368;53.406;6.214;2023-07-13T12:45:32;21.70;99.90
62339;DHT22;48368;53.406;6.214;2023-07-13T12:48:10;21.70;99.90
62339;DHT22;48368;53.406;6.214;2023-07-13T12:50:46;21.80;99.90
62339;DHT22;48368;53.406;6.214;2023-07-13T12:53:20;22.00;99.90
62339;DHT22;48368;53.406;6.214;2023-07-13T12:58:39;22.40;99.90
62339;DHT22;48368;53.406;6.214;2023-07-13T13:01:05;22.30;99.90
62339;DHT22;48368;53.406;6.214;2023-07-13T13:03:45;22.10;99.90
62339;DHT22;48368;53.406;6.214;2023-07-13T13:08:41;22.10;99.90
62339;DHT22;48368;53.406;6.214;2023-07-13T13:11:08;22.00;99.90
62339;DHT22;48368;53.406;6.214;2023-07-13T13:13:35;21.90;99.90
62339;DHT22;48368;53.406;6.214;2023-07-13T13:16:23;22.00;99.90
62339;DHT22;48368;53.406;6.214;2023-07-13T13:18:55;22.00;99.90
62339;DHT22;48368;53.406;6.214;2023-07-13T13:21:23;21.80;99.90
62339;DHT22;48368;53.406;6.214;2023-07-13T13:23:49;21.70;99.90
62339;DHT22;48368;53.406;6.214;2023-07-13T13:26:16;21.80;99.90
62339;DHT22;48368;53.406;6.214;2023-07-13T13:28:43;21.80;99.90
62339;DHT22;48368;53.406;6.214;2023-07-13T13:31:10;21.80;99.90
62339;DHT22;48368;53.406;6.214;2023-07-13T13:33:43;21.80;99.90
62339;DHT22;48368;53.406;6.214;2023-07-13T13:36:29;21.60;99.90
62339;DHT22;48368;53.406;6.214;2023-07-13T13:38:58;21.60;99.90
62339;DHT22;48368;53.406;6.214;2023-07-13T13:41:23;21.70;99.90
62339;DHT22;48368;53.406;6.214;2023-07-13T13:43:52;22.00;99.90
62339;DHT22;48368;53.406;6.214;2023-07-13T13:46:20;22.00;99.90
62339;DHT22;48368;53.406;6.214;2023-07-13T13:48:46;21.90;99.90
62339;DHT22;48368;53.406;6.214;2023-07-13T13:51:20;21.90;99.90
62339;DHT22;48368;53.406;6.214;2023-07-13T13:53:47;22.20;99.90
62339;DHT22;48368;53.406;6.214;2023-07-13T13:56:18;22.20;99.90
62339;DHT22;48368;53.406;6.214;2023-07-13T13:58:46;22.10;99.90
62339;DHT22;48368;53.406;6.214;2023-07-13T14:01:17;22.00;99.90
62339;DHT22;48368;53.406;6.214;2023-07-13T14:03:43;22.10;99.90
62339;DHT22;48368;53.406;6.214;2023-07-13T14:06:13;22.30;99.90
62339;DHT22;48368;53.406;6.214;2023-07-13T14:08:43;22.10;99.90
62339;DHT22;48368;53.406;6.214;2023-07-13T14:11:17;21.70;99.90
62339;DHT22;48368;53.406;6.214;2023-07-13T14:14:00;21.90;99.90
62339;DHT22;48368;53.406;6.214;2023-07-13T14:16:30;22.10;99.90
62339;DHT22;48368;53.406;6.214;2023-07-13T14:18:58;22.10;99.90
62339;DHT22;48368;53.406;6.214;2023-07-13T14:21:26;22.20;99.90
62339;DHT22;48368;53.406;6.214;2023-07-13T14:23:52;22.20;99.90
62339;DHT22;48368;53.406;6.214;2023-07-13T14:26:20;22.20;99.90
62339;DHT22;48368;53.406;6.214;2023-07-13T14:28:54;22.10;99.90
62339;DHT22;48368;53.406;6.214;2023-07-13T14:31:22;22.20;99.90
62339;DHT22;48368;53.406;6.214;2023-07-13T14:33:48;22.10;99.90
62339;DHT22;48368;53.406;6.214;2023-07-13T14:36:32;22.10;99.90
62339;DHT22;48368;53.406;6.214;2023-07-13T14:41:58;21.90;99.90
62339;DHT22;48368;53.406;6.214;2023-07-13T14:44:29;21.80;99.90
62339;DHT22;48368;53.406;6.214;2023-07-13T14:47:00;21.70;99.90
62339;DHT22;48368;53.406;6.214;2023-07-13T14:49:40;21.60;99.90
62339;DHT22;48368;53.406;6.214;2023-07-13T14:52:18;21.80;99.90
62339;DHT22;48368;53.406;6.214;2023-07-13T14:54:48;21.50;99.90
62339;DHT22;48368;53.406;6.214;2023-07-13T14:57:20;21.60;99.90
62339;DHT22;48368;53.406;6.214;2023-07-13T14:59:49;21.80;99.90
62339;DHT22;48368;53.406;6.214;2023-07-13T15:02:29;21.60;99.90
62339;DHT22;48368;53.406;6.214;2023-07-13T15:04:56;21.80;99.90
62339;DHT22;48368;53.406;6.214;2023-07-13T15:07:21;21.70;99.90
62339;DHT22;48368;53.406;6.214;2023-07-13T15:09:48;21.60;99.90
62339;DHT22;48368;53.406;6.214;2023-07-13T15:12:14;21.60;99.90
62339;DHT22;48368;53.406;6.214;2023-07-13T15:14:43;21.60;99.90
62339;DHT22;48368;53.406;6.214;2023-07-13T15:17:33;21.60;99.90
62339;DHT22;48368;53.406;6.214;2023-07-13T15:20:44;21.40;99.90
62339;DHT22;48368;53.406;6.214;2023-07-13T15:22:51;21.40;99.90
62339;DHT22;48368;53.406;6.214;2023-07-13T15:25:28;21.40;99.90
62339;DHT22;48368;53.406;6.214;2023-07-13T15:30:51;21.20;99.90
62339;DHT22;48368;53.406;6.214;2023-07-13T15:33:28;21.10;99.90
62339;DHT22;48368;53.406;6.214;2023-07-13T15:35:55;21.00;99.90
62339;DHT22;48368;53.406;6.214;2023-07-13T15:38:24;21.00;99.90
62339;DHT22;48368;53.406;6.214;2023-07-13T15:40:51;21.20;99.90
62339;DHT22;48368;53.406;6.214;2023-07-13T15:43:18;21.30;99.90
62339;DHT22;48368;53.406;6.214;2023-07-13T15:45:44;21.20;99.90
62339;DHT22;48368;53.406;6.214;2023-07-13T15:48:23;21.10;99.90
62339;DHT22;48368;53.406;6.214;2023-07-13T15:50:51;21.10;99.90
62339;DHT22;48368;53.406;6.214;2023-07-13T15:53:40;21.10;99.90
62339;DHT22;48368;53.406;6.214;2023-07-13T15:56:21;21.00;99.90
62339;DHT22;48368;53.406;6.214;2023-07-13T15:58:48;21.00;99.90
62339;DHT22;48368;53.406;6.214;2023-07-13T16:01:14;20.80;99.90
62339;DHT22;48368;53.406;6.214;2023-07-13T16:03:43;20.70;99.90
62339;DHT22;48368;53.406;6.214;2023-07-13T16:06:32;20.70;99.90
62339;DHT22;48368;53.406;6.214;2023-07-13T16:08:58;20.70;99.90
62339;DHT22;48368;53.406;6.214;2023-07-13T16:11:26;20.90;99.90
62339;DHT22;48368;53.406;6.214;2023-07-13T16:13:53;20.80;99.90
62339;DHT22;48368;53.406;6.214;2023-07-13T16:16:22;20.90;99.90
62339;DHT22;48368;53.406;6.214;2023-07-13T16:18:55;20.80;99.90
62339;DHT22;48368;53.406;6.214;2023-07-13T16:21:30;20.80;99.90
62339;DHT22;48368;53.406;6.214;2023-07-13T16:23:57;20.70;99.90
62339;DHT22;48368;53.406;6.214;2023-07-13T16:26:36;20.70;99.90
62339;DHT22;48368;53.406;6.214;2023-07-13T16:29:16;20.70;99.90
62339;DHT22;48368;53.406;6.214;2023-07-13T16:31:58;20.70;99.90
62339;DHT22;48368;53.406;6.214;2023-07-13T16:34:25;20.70;99.90
62339;DHT22;48368;53.406;6.214;2023-07-13T16:36:52;20.80;99.90
62339;DHT22;48368;53.406;6.214;2023-07-13T16:39:17;20.80;99.90
62339;DHT22;48368;53.406;6.214;2023-07-13T16:41:47;20.70;99.90
62339;DHT22;48368;53.406;6.214;2023-07-13T16:44:15;20.70;99.90
62339;DHT22;48368;53.406;6.214;2023-07-13T16:46:43;20.70;99.90
62339;DHT22;48368;53.406;6.214;2023-07-13T16:49:38;20.70;99.90
62339;DHT22;48368;53.406;6.214;2023-07-13T16:52:05;20.70;99.90
62339;DHT22;48368;53.406;6.214;2023-07-13T16:54:33;20.70;99.90
62339;DHT22;48368;53.406;6.214;2023-07-13T16:57:01;20.70;99.90
62339;DHT22;48368;53.406;6.214;2023-07-13T16:59:33;20.60;99.90
62339;DHT22;48368;53.406;6.214;2023-07-13T17:02:30;20.70;99.90
62339;DHT22;48368;53.406;6.214;2023-07-13T17:05:01;20.50;99.90
62339;DHT22;48368;53.406;6.214;2023-07-13T17:07:26;20.50;99.90
62339;DHT22;48368;53.406;6.214;2023-07-13T17:09:54;20.40;99.90
62339;DHT22;48368;53.406;6.214;2023-07-13T17:12:20;20.50;99.90
62339;DHT22;48368;53.406;6.214;2023-07-13T17:14:47;20.40;99.90
62339;DHT22;48368;53.406;6.214;2023-07-13T17:17:29;20.40;99.90
62339;DHT22;48368;53.406;6.214;2023-07-13T17:19:58;20.30;99.90
62339;DHT22;48368;53.406;6.214;2023-07-13T17:22:25;20.40;99.90
62339;DHT22;48368;53.406;6.214;2023-07-13T17:24:53;20.30;99.90
62339;DHT22;48368;53.406;6.214;2023-07-13T17:27:19;20.20;99.90
62339;DHT22;48368;53.406;6.214;2023-07-13T17:29:46;20.20;99.90
62339;DHT22;48368;53.406;6.214;2023-07-13T17:32:30;20.10;99.90
62339;DHT22;48368;53.406;6.214;2023-07-13T17:34:56;20.20;99.90
62339;DHT22;48368;53.406;6.214;2023-07-13T17:37:22;20.20;99.90
62339;DHT22;48368;53.406;6.214;2023-07-13T17:39:48;20.10;99.90
62339;DHT22;48368;53.406;6.214;2023-07-13T17:42:25;20.10;99.90
62339;DHT22;48368;53.406;6.214;2023-07-13T17:44:57;20.10;99.90
62339;DHT22;48368;53.406;6.214;2023-07-13T17:47:27;20.00;99.90
62339;DHT22;48368;53.406;6.214;2023-07-13T17:49:53;20.00;99.90
62339;DHT22;48368;53.406;6.214;2023-07-13T17:52:19;19.90;99.90
62339;DHT22;48368;53.406;6.214;2023-07-13T17:54:45;19.80;99.90
62339;DHT22;48368;53.406;6.214;2023-07-13T17:57:10;19.80;99.90
62339;DHT22;48368;53.406;6.214;2023-07-13T17:59:39;19.80;99.90
62339;DHT22;48368;53.406;6.214;2023-07-13T18:02:15;19.80;99.90
62339;DHT22;48368;53.406;6.214;2023-07-13T18:04:43;19.90;99.90
62339;DHT22;48368;53.406;6.214;2023-07-13T18:07:11;19.70;99.90
62339;DHT22;48368;53.406;6.214;2023-07-13T18:09:42;19.70;99.90
62339;DHT22;48368;53.406;6.214;2023-07-13T18:12:11;19.70;99.90
62339;DHT22;48368;53.406;6.214;2023-07-13T18:14:37;19.60;99.90
62339;DHT22;48368;53.406;6.214;2023-07-13T18:17:11;19.60;99.90
62339;DHT22;48368;53.406;6.214;2023-07-13T18:19:40;19.50;99.90
62339;DHT22;48368;53.406;6.214;2023-07-13T18:22:11;19.50;99.90
62339;DHT22;48368;53.406;6.214;2023-07-13T18:24:43;19.40;99.90
62339;DHT22;48368;53.406;6.214;2023-07-13T18:27:09;19.20;99.90
62339;DHT22;48368;53.406;6.214;2023-07-13T18:29:37;19.20;99.90
62339;DHT22;48368;53.406;6.214;2023-07-13T18:32:06;19.10;99.90
62339;DHT22;48368;53.406;6.214;2023-07-13T18:34:36;19.10;99.90
62339;DHT22;48368;53.406;6.214;2023-07-13T18:37:03;19.10;99.90
62339;DHT22;48368;53.406;6.214;2023-07-13T18:39:28;19.10;99.90
62339;DHT22;48368;53.406;6.214;2023-07-13T18:41:54;19.00;99.90
62339;DHT22;48368;53.406;6.214;2023-07-13T18:44:20;19.00;99.90
62339;DHT22;48368;53.406;6.214;2023-07-13T18:46:46;19.00;99.90
62339;DHT22;48368;53.406;6.214;2023-07-13T18:49:12;19.00;99.90
62339;DHT22;48368;53.406;6.214;2023-07-13T18:51:39;19.00;99.90
62339;DHT22;48368;53.406;6.214;2023-07-13T18:54:11;19.00;99.90
62339;DHT22;48368;53.406;6.214;2023-07-13T18:56:37;18.90;99.90
62339;DHT22;48368;53.406;6.214;2023-07-13T18:59:03;18.90;99.90
62339;DHT22;48368;53.406;6.214;2023-07-13T19:01:32;18.90;99.90
62339;DHT22;48368;53.406;6.214;2023-07-13T19:06:44;18.80;99.90
62339;DHT22;48368;53.406;6.214;2023-07-13T19:09:11;18.70;99.90
62339;DHT22;48368;53.406;6.214;2023-07-13T19:11:40;18.60;99.90
62339;DHT22;48368;53.406;6.214;2023-07-13T19:14:11;18.60;99.90
62339;DHT22;48368;53.406;6.214;2023-07-13T19:16:41;18.60;99.90
62339;DHT22;48368;53.406;6.214;2023-07-13T19:19:15;18.60;99.90
62339;DHT22;48368;53.406;6.214;2023-07-13T19:21:42;18.60;99.90
62339;DHT22;48368;53.406;6.214;2023-07-13T19:24:34;18.50;99.90
62339;DHT22;48368;53.406;6.214;2023-07-13T19:27:03;18.60;99.90
62339;DHT22;48368;53.406;6.214;2023-07-13T19:29:29;18.50;99.90
62339;DHT22;48368;53.406;6.214;2023-07-13T19:31:56;18.50;99.90
62339;DHT22;48368;53.406;6.214;2023-07-13T19:34:25;18.40;99.90
62339;DHT22;48368;53.406;6.214;2023-07-13T19:37:00;18.40;99.90
62339;DHT22;48368;53.406;6.214;2023-07-13T19:39:53;18.30;99.90
62339;DHT22;48368;53.406;6.214;2023-07-13T19:42:24;18.30;99.90
62339;DHT22;48368;53.406;6.214;2023-07-13T19:44:54;18.30;99.90
62339;DHT22;48368;53.406;6.214;2023-07-13T19:47:20;18.10;99.90
62339;DHT22;48368;53.406;6.214;2023-07-13T19:49:46;18.10;99.90
62339;DHT22;48368;53.406;6.214;2023-07-13T19:52:17;18.10;99.90
62339;DHT22;48368;53.406;6.214;2023-07-13T19:54:44;18.00;99.90
62339;DHT22;48368;53.406;6.214;2023-07-13T19:57:17;18.00;99.90
62339;DHT22;48368;53.406;6.214;2023-07-13T19:59:44;17.90;99.90
62339;DHT22;48368;53.406;6.214;2023-07-13T20:02:28;17.90;99.90
62339;DHT22;48368;53.406;6.214;2023-07-13T20:04:54;17.80;99.90
62339;DHT22;48368;53.406;6.214;2023-07-13T20:07:24;17.80;99.90
62339;DHT22;48368;53.406;6.214;2023-07-13T20:09:51;17.90;99.90
62339;DHT22;48368;53.406;6.214;2023-07-13T20:12:24;17.80;99.90
62339;DHT22;48368;53.406;6.214;2023-07-13T20:14:51;17.90;99.90
62339;DHT22;48368;53.406;6.214;2023-07-13T20:17:36;17.80;99.90
62339;DHT22;48368;53.406;6.214;2023-07-13T20:22:51;17.80;99.90
62339;DHT22;48368;53.406;6.214;2023-07-13T20:25:29;17.80;99.90
62339;DHT22;48368;53.406;6.214;2023-07-13T20:27:57;17.80;99.90
62339;DHT22;48368;53.406;6.214;2023-07-13T20:30:29;17.80;99.90
62339;DHT22;48368;53.406;6.214;2023-07-13T20:33:01;17.80;99.90
62339;DHT22;48368;53.406;6.214;2023-07-13T20:35:32;17.80;99.90
62339;DHT22;48368;53.406;6.214;2023-07-13T20:38:15;17.80;99.90
62339;DHT22;48368;53.406;6.214;2023-07-13T20:40:43;17.80;99.90
62339;DHT22;48368;53.406;6.214;2023-07-13T20:43:09;17.70;99.90
62339;DHT22;48368;53.406;6.214;2023-07-13T20:45:35;17.60;99.90
62339;DHT22;48368;53.406;6.214;2023-07-13T20:48:37;17.60;99.90
62339;DHT22;48368;53.406;6.214;2023-07-13T20:51:05;17.60;99.90
62339;DHT22;48368;53.406;6.214;2023-07-13T20:53:33;17.50;99.90
62339;DHT22;48368;53.406;6.214;2023-07-13T20:56:37;17.50;99.90
62339;DHT22;48368;53.406;6.214;2023-07-13T20:58:56;17.50;99.90
62339;DHT22;48368;53.406;6.214;2023-07-13T21:01:37;17.40;99.90
62339;DHT22;48368;53.406;6.214;2023-07-13T21:04:15;17.40;99.90
62339;DHT22;48368;53.406;6.214;2023-07-13T21:06:41;17.40;99.90
62339;DHT22;48368;53.406;6.214;2023-07-13T21:09:17;17.30;99.90
62339;DHT22;48368;53.406;6.214;2023-07-13T21:11:43;17.40;99.90
62339;DHT22;48368;53.406;6.214;2023-07-13T21:14:09;17.30;99.90
62339;DHT22;48368;53.406;6.214;2023-07-13T21:16:35;17.30;99.90
62339;DHT22;48368;53.406;6.214;2023-07-13T21:19:01;17.20;99.90
62339;DHT22;48368;53.406;6.214;2023-07-13T21:21:36;17.20;99.90
62339;DHT22;48368;53.406;6.214;2023-07-13T21:24:01;17.20;99.90
62339;DHT22;48368;53.406;6.214;2023-07-13T21:26:27;17.10;99.90
62339;DHT22;48368;53.406;6.214;2023-07-13T21:28:55;17.00;99.90
62339;DHT22;48368;53.406;6.214;2023-07-13T21:31:31;17.00;99.90
62339;DHT22;48368;53.406;6.214;2023-07-13T21:34:09;17.00;99.90
62339;DHT22;48368;53.406;6.214;2023-07-13T21:36:38;16.90;99.90
62339;DHT22;48368;53.406;6.214;2023-07-13T21:39:05;16.90;99.90
62339;DHT22;48368;53.406;6.214;2023-07-13T21:41:36;16.90;99.90
62339;DHT22;48368;53.406;6.214;2023-07-13T21:44:38;16.80;99.90
62339;DHT22;48368;53.406;6.214;2023-07-13T21:46:57;16.80;99.90
62339;DHT22;48368;53.406;6.214;2023-07-13T21:49:23;16.70;99.90
62339;DHT22;48368;53.406;6.214;2023-07-13T21:51:49;16.70;99.90
62339;DHT22;48368;53.406;6.214;2023-07-13T21:54:17;16.70;99.90
62339;DHT22;48368;53.406;6.214;2023-07-13T21:56:43;16.60;99.90
62339;DHT22;48368;53.406;6.214;2023-07-13T21:59:21;16.60;99.90
62339;DHT22;48368;53.406;6.214;2023-07-13T22:01:48;16.50;99.90
62339;DHT22;48368;53.406;6.214;2023-07-13T22:04:19;16.50;99.90
62339;DHT22;48368;53.406;6.214;2023-07-13T22:13:42;16.60;99.90
62339;DHT22;48368;53.406;6.214;2023-07-13T22:16:24;16.60;99.90
62339;DHT22;48368;53.406;6.214;2023-07-13T22:19:19;16.60;99.90
62339;DHT22;48368;53.406;6.214;2023-07-13T22:22:01;16.60;99.90
62339;DHT22;48368;53.406;6.214;2023-07-13T22:24:35;16.60;99.90
62339;DHT22;48368;53.406;6.214;2023-07-13T22:27:10;16.60;99.90
62339;DHT22;48368;53.406;6.214;2023-07-13T22:29:45;16.60;99.90
62339;DHT22;48368;53.406;6.214;2023-07-13T22:32:27;16.60;99.90
62339;DHT22;48368;53.406;6.214;2023-07-13T22:34:53;16.50;99.90
62339;DHT22;48368;53.406;6.214;2023-07-13T22:37:34;16.50;99.90
62339;DHT22;48368;53.406;6.214;2023-07-13T22:40:16;16.50;99.90
62339;DHT22;48368;53.406;6.214;2023-07-13T22:42:42;16.50;99.90
62339;DHT22;48368;53.406;6.214;2023-07-13T22:45:22;16.40;99.90
62339;DHT22;48368;53.406;6.214;2023-07-13T22:47:53;16.30;99.90
62339;DHT22;48368;53.406;6.214;2023-07-13T22:50:49;16.20;99.90
62339;DHT22;48368;53.406;6.214;2023-07-13T22:53:41;16.20;99.90
62339;DHT22;48368;53.406;6.214;2023-07-13T22:56:27;16.10;99.90
62339;DHT22;48368;53.406;6.214;2023-07-13T22:59:03;16.10;99.90
62339;DHT22;48368;53.406;6.214;2023-07-13T23:01:31;16.10;99.90
62339;DHT22;48368;53.406;6.214;2023-07-13T23:06:45;16.10;99.90
62339;DHT22;48368;53.406;6.214;2023-07-13T23:09:27;16.10;99.90
62339;DHT22;48368;53.406;6.214;2023-07-13T23:12:07;16.10;99.90
62339;DHT22;48368;53.406;6.214;2023-07-13T23:14:40;16.10;99.90
62339;DHT22;48368;53.406;6.214;2023-07-13T23:17:14;16.10;99.90
62339;DHT22;48368;53.406;6.214;2023-07-13T23:19:53;16.10;99.90
62339;DHT22;48368;53.406;6.214;2023-07-13T23:22:25;16.10;99.90
62339;DHT22;48368;53.406;6.214;2023-07-13T23:24:54;16.10;99.90
62339;DHT22;48368;53.406;6.214;2023-07-13T23:27:32;16.10;99.90
62339;DHT22;48368;53.406;6.214;2023-07-13T23:30:00;16.10;99.90
62339;DHT22;48368;53.406;6.214;2023-07-13T23:33:02;16.10;99.90
62339;DHT22;48368;53.406;6.214;2023-07-13T23:36:29;16.10;99.90
62339;DHT22;48368;53.406;6.214;2023-07-13T23:39:13;16.10;99.90
62339;DHT22;48368;53.406;6.214;2023-07-13T23:41:53;16.00;99.90
62339;DHT22;48368;53.406;6.214;2023-07-13T23:44:31;16.00;99.90
62339;DHT22;48368;53.406;6.214;2023-07-13T23:47:00;16.00;99.90
62339;DHT22;48368;53.406;6.214;2023-07-13T23:49:32;16.00;99.90
62339;DHT22;48368;53.406;6.214;2023-07-13T23:52:03;15.90;99.90
62339;DHT22;48368;53.406;6.214;2023-07-13T23:54:32;16.00;99.90
62339;DHT22;48368;53.406;6.214;2023-07-13T23:56:59;16.00;99.90
62339;DHT22;48368;53.406;6.214;2023-07-13T23:59:27;15.90;99.90
